createdAt,value
2019-05-12T00:00:39.243Z,5.96
2019-05-12T00:03:13.144Z,5.90
2019-05-12T00:06:00.924Z,5.91
2019-05-12T00:08:33.283Z,5.94
2019-05-12T00:11:08.934Z,5.91
2019-05-12T00:13:38.522Z,5.88
2019-05-12T00:16:09.506Z,5.86
2019-05-12T00:18:41.975Z,5.83
2019-05-12T00:21:12.480Z,5.81
2019-05-12T00:24:00.888Z,5.80
2019-05-12T00:26:38.276Z,5.84
2019-05-12T00:29:11.687Z,5.82
2019-05-12T00:31:42.187Z,5.80
2019-05-12T00:34:12.663Z,5.81
2019-05-12T00:36:43.115Z,5.80
2019-05-12T00:39:33.373Z,5.81
2019-05-12T00:42:07.782Z,5.74
2019-05-12T00:44:39.121Z,5.69
2019-05-12T00:47:10.836Z,5.71
2019-05-12T00:49:41.290Z,5.70
2019-05-12T00:52:13.167Z,5.63
2019-05-12T00:54:48.279Z,5.65
2019-05-12T00:57:18.962Z,5.65
2019-05-12T00:59:50.446Z,5.64
2019-05-12T01:02:21.084Z,5.65
2019-05-12T01:04:52.121Z,5.58
2019-05-12T01:07:24.899Z,5.62
2019-05-12T01:09:55.426Z,5.57
2019-05-12T01:12:31.454Z,5.58
2019-05-12T01:15:03.148Z,5.58
2019-05-12T01:17:33.688Z,5.60
2019-05-12T01:20:05.189Z,5.59
2019-05-12T01:22:38.252Z,5.59
2019-05-12T01:25:17.475Z,5.65
2019-05-12T01:27:48.346Z,5.62
2019-05-12T01:30:18.936Z,5.60
2019-05-12T01:32:49.412Z,5.51
2019-05-12T01:35:19.825Z,5.48
2019-05-12T01:37:50.570Z,5.42
2019-05-12T01:41:04.871Z,5.40
2019-05-12T01:43:35.333Z,5.39
2019-05-12T01:46:08.042Z,5.38
2019-05-12T01:48:38.255Z,5.36
2019-05-12T01:51:09.118Z,5.37
2019-05-12T01:53:41.285Z,5.38
2019-05-12T01:56:11.771Z,5.45
2019-05-12T01:58:42.252Z,5.42
2019-05-12T02:01:12.695Z,5.41
2019-05-12T02:03:44.981Z,5.41
2019-05-12T02:06:45.375Z,5.48
2019-05-12T02:09:18.741Z,5.45
2019-05-12T02:11:49.294Z,5.45
2019-05-12T02:14:20.171Z,5.50
2019-05-12T02:16:50.612Z,5.48
2019-05-12T02:19:21.079Z,5.49
2019-05-12T02:21:51.520Z,5.48
2019-05-12T02:24:27.134Z,5.49
2019-05-12T02:26:54.236Z,5.48
2019-05-12T02:29:24.738Z,5.45
2019-05-12T02:31:55.218Z,5.45
2019-05-12T02:34:25.799Z,5.49
2019-05-12T02:36:56.214Z,5.49
2019-05-12T02:39:45.039Z,5.43
2019-05-12T02:42:15.767Z,5.34
2019-05-12T02:44:46.382Z,5.38
2019-05-12T02:47:16.770Z,5.35
2019-05-12T02:49:47.211Z,5.38
2019-05-12T02:52:19.441Z,5.30
2019-05-12T02:54:59.662Z,5.33
2019-05-12T02:57:25.578Z,5.31
2019-05-12T02:59:54.574Z,5.27
2019-05-12T03:02:25.099Z,5.22
2019-05-12T03:05:00.410Z,5.21
2019-05-12T03:07:30.792Z,5.21
2019-05-12T03:10:04.981Z,5.21
2019-05-12T03:12:40.933Z,5.22
2019-05-12T03:15:14.821Z,5.25
2019-05-12T03:17:44.287Z,5.21
2019-05-12T03:20:16.604Z,5.23
2019-05-12T03:22:47.028Z,5.26
2019-05-12T03:25:24.684Z,5.29
2019-05-12T03:27:49.940Z,5.28
2019-05-12T03:30:20.426Z,5.32
2019-05-12T03:32:57.435Z,5.33
2019-05-12T03:35:32.553Z,5.28
2019-05-12T03:37:56.565Z,5.30
2019-05-12T03:40:37.503Z,5.33
2019-05-12T03:43:10.341Z,5.34
2019-05-12T03:45:37.962Z,5.38
2019-05-12T03:48:08.469Z,5.45
2019-05-12T03:50:38.907Z,5.42
2019-05-12T03:53:11.235Z,5.39
2019-05-12T03:55:46.415Z,5.38
2019-05-12T03:58:15.189Z,5.35
2019-05-12T04:00:46.078Z,5.35
2019-05-12T04:03:16.562Z,5.42
2019-05-12T04:05:47.348Z,5.42
2019-05-12T04:08:18.160Z,5.38
2019-05-12T04:10:49.926Z,5.37
2019-05-12T04:13:20.335Z,5.42
2019-05-12T04:15:50.813Z,5.42
2019-05-12T04:18:28.942Z,5.50
2019-05-12T04:20:59.413Z,5.49
2019-05-12T04:23:34.881Z,5.48
2019-05-12T04:26:12.078Z,5.51
2019-05-12T04:28:40.444Z,5.44
2019-05-12T04:31:10.835Z,5.42
2019-05-12T04:33:45.230Z,5.39
2019-05-12T04:36:17.011Z,5.38
2019-05-12T04:38:47.522Z,5.35
2019-05-12T04:41:20.143Z,5.38
2019-05-12T04:43:50.126Z,5.41
2019-05-12T04:46:20.603Z,5.40
2019-05-12T04:48:58.445Z,5.38
2019-05-12T04:51:30.959Z,5.48
2019-05-12T04:54:01.141Z,5.47
2019-05-12T04:56:35.416Z,5.50
2019-05-12T04:59:05.179Z,5.54
2019-05-12T05:01:38.329Z,5.61
2019-05-12T05:04:09.174Z,5.63
2019-05-12T05:06:45.287Z,5.65
2019-05-12T05:09:17.047Z,5.71
2019-05-12T05:11:49.461Z,5.76
2019-05-12T05:14:20.012Z,5.80
2019-05-12T05:16:57.626Z,5.77
2019-05-12T05:19:33.740Z,5.82
2019-05-12T05:22:04.382Z,5.82
2019-05-12T05:24:35.206Z,5.88
2019-05-12T05:27:07.263Z,5.94
2019-05-12T05:29:40.042Z,6.00
2019-05-12T05:32:10.801Z,6.01
2019-05-12T05:34:46.231Z,6.01
2019-05-12T05:37:14.547Z,6.06
2019-05-12T05:39:49.691Z,6.06
2019-05-12T05:42:22.050Z,6.03
2019-05-12T05:44:49.826Z,5.95
2019-05-12T05:47:27.135Z,5.95
2019-05-12T05:49:59.588Z,5.97
2019-05-12T05:52:38.550Z,5.99
2019-05-12T05:55:14.857Z,5.96
2019-05-12T05:57:40.232Z,5.94
2019-05-12T06:00:17.376Z,5.97
2019-05-12T06:02:44.082Z,5.87
2019-05-12T06:05:19.917Z,5.97
2019-05-12T06:07:50.277Z,6.00
2019-05-12T06:10:20.778Z,5.92
2019-05-12T06:12:54.250Z,5.87
2019-05-12T06:15:24.860Z,5.89
2019-05-12T06:17:55.541Z,5.88
2019-05-12T06:20:28.784Z,5.91
2019-05-12T06:22:59.281Z,5.90
2019-05-12T06:25:45.979Z,5.91
2019-05-12T06:28:11.140Z,5.90
2019-05-12T06:30:45.050Z,6.01
2019-05-12T06:33:14.472Z,6.09
2019-05-12T06:35:45.570Z,6.10
2019-05-12T06:38:23.690Z,6.12
2019-05-12T06:40:54.477Z,6.07
2019-05-12T06:43:29.082Z,6.07
2019-05-12T06:45:57.298Z,6.10
2019-05-12T06:48:33.239Z,6.10
2019-05-12T06:51:04.120Z,6.02
2019-05-12T06:53:55.152Z,6.03
2019-05-12T06:56:26.645Z,5.99
2019-05-12T06:59:09.866Z,5.99
2019-05-12T07:01:38.061Z,5.99
2019-05-12T07:04:15.978Z,6.00
2019-05-12T07:06:49.783Z,6.02
2019-05-12T07:09:25.157Z,6.05
2019-05-12T07:12:02.931Z,6.10
2019-05-12T07:14:28.978Z,6.13
2019-05-12T07:19:43.967Z,6.05
2019-05-12T07:22:21.957Z,6.03
2019-05-12T07:24:54.718Z,6.08
2019-05-12T07:27:36.067Z,6.04
2019-05-12T07:30:04.777Z,6.00
2019-05-12T07:32:43.372Z,5.91
2019-05-12T07:35:14.749Z,5.84
2019-05-12T07:37:45.357Z,5.93
2019-05-12T07:40:18.965Z,5.89
2019-05-12T07:42:47.979Z,5.96
2019-05-12T07:45:22.468Z,6.01
2019-05-12T07:47:51.243Z,6.05
2019-05-12T07:50:26.506Z,6.11
2019-05-12T07:52:54.338Z,6.21
2019-05-12T07:55:26.928Z,6.23
2019-05-12T07:58:13.687Z,6.23
2019-05-12T08:00:38.927Z,6.25
2019-05-12T08:03:25.077Z,6.35
2019-05-12T08:06:02.247Z,6.32
2019-05-12T08:08:33.966Z,6.23
2019-05-12T08:11:04.903Z,6.26
2019-05-12T08:13:40.917Z,6.30
2019-05-12T08:16:14.408Z,6.28
2019-05-12T08:18:54.073Z,6.28
2019-05-12T08:21:27.145Z,6.26
2019-05-12T08:23:57.880Z,6.27
2019-05-12T08:26:29.813Z,6.21
2019-05-12T08:29:00.343Z,6.24
2019-05-12T08:31:40.060Z,6.17
2019-05-12T08:34:06.155Z,6.20
2019-05-12T08:36:36.736Z,6.37
2019-05-12T08:39:11.931Z,6.42
2019-05-12T08:41:44.258Z,6.54
2019-05-12T08:44:17.025Z,6.63
2019-05-12T08:46:52.059Z,6.60
2019-05-12T08:49:24.194Z,6.59
2019-05-12T08:51:58.565Z,6.69
2019-05-12T08:54:26.829Z,6.63
2019-05-12T08:57:01.264Z,6.55
2019-05-12T08:59:34.274Z,6.63
2019-05-12T09:02:10.512Z,6.61
2019-05-12T09:05:04.701Z,6.67
2019-05-12T09:07:39.864Z,6.67
2019-05-12T09:10:09.506Z,6.75
2019-05-12T09:12:40.088Z,6.80
2019-05-12T09:15:14.016Z,6.79
2019-05-12T09:17:52.649Z,6.82
2019-05-12T09:20:19.113Z,6.90
2019-05-12T09:22:52.795Z,6.91
2019-05-12T09:25:23.992Z,6.89
2019-05-12T09:27:54.445Z,6.84
2019-05-12T09:30:33.649Z,6.87
2019-05-12T09:33:04.780Z,6.91
2019-05-12T09:35:39.349Z,6.90
2019-05-12T09:38:21.313Z,6.93
2019-05-12T09:40:52.862Z,7.00
2019-05-12T09:43:23.881Z,7.02
2019-05-12T09:45:56.512Z,7.23
2019-05-12T09:48:52.327Z,7.39
2019-05-12T09:51:35.219Z,7.68
2019-05-12T09:53:58.826Z,7.97
2019-05-12T09:56:29.747Z,8.21
2019-05-12T09:59:04.727Z,8.38
2019-05-12T10:01:39.693Z,8.52
2019-05-12T10:04:15.396Z,8.58
2019-05-12T10:06:44.443Z,8.81
2019-05-12T10:09:49.316Z,8.73
2019-05-12T10:12:22.905Z,8.75
2019-05-12T10:14:53.566Z,8.68
2019-05-12T10:17:30.199Z,8.85
2019-05-12T10:20:00.450Z,8.85
2019-05-12T10:22:40.163Z,8.93
2019-05-12T10:25:14.389Z,9.08
2019-05-12T10:27:56.325Z,9.60
2019-05-12T10:30:27.044Z,9.84
2019-05-12T10:32:57.617Z,9.67
2019-05-12T10:35:43.673Z,9.60
2019-05-12T10:38:13.889Z,9.61
2019-05-12T10:40:45.461Z,9.96
2019-05-12T10:43:23.535Z,10.25
2019-05-12T10:45:53.789Z,10.45
2019-05-12T10:48:26.210Z,10.52
2019-05-12T10:51:12.120Z,10.69
2019-05-12T10:53:59.887Z,10.71
2019-05-12T10:56:27.629Z,11.34
2019-05-12T10:58:58.204Z,11.83
2019-05-12T11:01:30.770Z,11.30
2019-05-12T11:04:03.965Z,11.31
2019-05-12T11:06:39.716Z,11.51
2019-05-12T11:09:09.779Z,11.85
2019-05-12T11:11:45.317Z,12.09
2019-05-12T11:14:14.346Z,11.97
2019-05-12T11:16:47.293Z,11.51
2019-05-12T11:19:17.797Z,11.78
2019-05-12T11:21:50.608Z,12.14
2019-05-12T11:24:21.144Z,12.44
2019-05-12T11:26:53.620Z,12.46
2019-05-12T11:29:27.719Z,12.56
2019-05-12T11:31:59.760Z,12.37
2019-05-12T11:34:33.557Z,12.24
2019-05-12T11:37:10.119Z,12.33
2019-05-12T11:39:45.255Z,12.66
2019-05-12T11:42:13.636Z,12.44
2019-05-12T11:44:45.922Z,12.67
2019-05-12T11:47:24.085Z,13.12
2019-05-12T11:49:49.912Z,13.33
2019-05-12T11:52:20.652Z,13.18
2019-05-12T11:54:59.775Z,12.67
2019-05-12T11:57:30.460Z,12.66
2019-05-12T12:00:20.720Z,12.97
2019-05-12T12:02:54.115Z,12.95
2019-05-12T12:05:30.515Z,12.60
2019-05-12T12:08:04.031Z,12.52
2019-05-12T12:10:40.205Z,12.74
2019-05-12T12:13:10.785Z,12.89
2019-05-12T12:15:48.855Z,12.92
2019-05-12T12:18:23.935Z,12.92
2019-05-12T12:21:04.126Z,12.62
2019-05-12T12:23:35.939Z,12.96
2019-05-12T12:26:37.298Z,12.84
2019-05-12T12:29:10.934Z,12.75
2019-05-12T12:31:50.490Z,12.53
2019-05-12T12:34:30.066Z,12.71
2019-05-12T12:36:58.357Z,12.48
2019-05-12T12:39:32.131Z,12.57
2019-05-12T12:42:19.615Z,12.32
2019-05-12T12:44:58.843Z,12.08
2019-05-12T12:47:29.140Z,11.80
2019-05-12T12:50:04.048Z,11.66
2019-05-12T12:52:44.798Z,11.49
2019-05-12T12:55:20.241Z,11.40
2019-05-12T12:57:50.877Z,11.37
2019-05-12T13:00:31.821Z,11.33
2019-05-12T13:02:55.090Z,11.48
2019-05-12T13:05:25.730Z,11.44
2019-05-12T13:07:56.336Z,11.57
2019-05-12T13:10:27.099Z,11.84
2019-05-12T13:13:00.952Z,11.88
2019-05-12T13:15:31.222Z,11.67
2019-05-12T13:18:05.262Z,11.71
2019-05-12T13:20:35.702Z,11.75
2019-05-12T13:23:15.093Z,11.98
2019-05-12T13:25:51.963Z,12.17
2019-05-12T13:28:25.130Z,12.37
2019-05-12T13:31:08.252Z,12.64
2019-05-12T13:33:33.844Z,12.94
2019-05-12T13:36:00.974Z,13.00
2019-05-12T13:38:38.780Z,12.82
2019-05-12T13:41:04.507Z,12.72
2019-05-12T13:43:37.945Z,12.49
2019-05-12T13:46:10.740Z,12.17
2019-05-12T13:48:43.337Z,12.11
2019-05-12T13:51:15.846Z,12.55
2019-05-12T13:53:50.431Z,12.95
2019-05-12T13:56:25.747Z,13.13
2019-05-12T13:58:55.338Z,13.35
2019-05-12T14:01:26.103Z,13.58
2019-05-12T14:03:57.931Z,13.92
2019-05-12T14:06:39.609Z,13.95
2019-05-12T14:09:10.550Z,13.75
2019-05-12T14:11:43.510Z,13.48
2019-05-12T14:14:15.397Z,13.09
2019-05-12T14:16:57.463Z,12.93
2019-05-12T14:19:30.373Z,12.63
2019-05-12T14:22:15.145Z,12.30
2019-05-12T14:24:46.703Z,12.24
2019-05-12T14:27:19.101Z,12.26
2019-05-12T14:29:47.912Z,12.23
2019-05-12T14:32:19.232Z,12.33
2019-05-12T14:34:51.162Z,12.81
2019-05-12T14:37:24.302Z,13.13
2019-05-12T14:39:55.639Z,13.20
2019-05-12T14:42:34.804Z,13.09
2019-05-12T14:45:01.770Z,13.11
2019-05-12T14:47:33.944Z,13.10
2019-05-12T14:50:06.852Z,13.34
2019-05-12T14:52:37.704Z,13.55
2019-05-12T14:55:17.248Z,13.10
2019-05-12T14:57:48.086Z,13.39
2019-05-12T15:00:21.281Z,13.58
2019-05-12T15:02:54.099Z,13.89
2019-05-12T15:05:27.764Z,13.97
2019-05-12T15:08:01.645Z,13.95
2019-05-12T15:10:35.157Z,14.16
2019-05-12T15:13:05.736Z,14.36
2019-05-12T15:15:36.252Z,13.80
2019-05-12T15:18:13.767Z,13.46
2019-05-12T15:20:50.346Z,13.54
2019-05-12T15:23:23.832Z,13.79
2019-05-12T15:25:54.381Z,13.73
2019-05-12T15:28:35.789Z,13.46
2019-05-12T15:31:06.229Z,13.12
2019-05-12T15:33:38.933Z,12.91
2019-05-12T15:36:09.132Z,12.70
2019-05-12T15:38:49.252Z,12.56
2019-05-12T15:41:20.230Z,12.52
2019-05-12T15:43:55.849Z,12.36
2019-05-12T15:46:34.660Z,12.33
2019-05-12T15:49:04.602Z,12.27
2019-05-12T15:51:53.051Z,12.08
2019-05-12T15:54:14.503Z,12.09
2019-05-12T15:56:46.108Z,12.05
2019-05-12T15:59:17.444Z,12.03
2019-05-12T16:01:48.271Z,12.09
2019-05-12T16:04:27.183Z,12.18
2019-05-12T16:06:57.928Z,12.28
2019-05-12T16:09:28.460Z,12.15
2019-05-12T16:12:09.426Z,12.26
2019-05-12T16:14:36.852Z,12.28
2019-05-12T16:17:25.026Z,12.28
2019-05-12T16:19:53.994Z,12.34
2019-05-12T16:22:24.148Z,12.23
2019-05-12T16:24:56.414Z,12.14
2019-05-12T16:27:33.160Z,12.01
2019-05-12T16:30:04.720Z,11.92
2019-05-12T16:32:44.604Z,11.83
2019-05-12T16:35:14.563Z,11.80
2019-05-12T16:37:46.781Z,11.67
2019-05-12T16:40:17.268Z,11.65
2019-05-12T16:42:55.130Z,11.63
2019-05-12T16:45:23.458Z,11.53
2019-05-12T16:47:54.130Z,11.53
2019-05-12T16:50:31.352Z,11.40
2019-05-12T16:53:21.664Z,11.35
2019-05-12T16:56:11.306Z,11.33
2019-05-12T16:58:44.837Z,11.26
2019-05-12T17:01:19.579Z,11.27
2019-05-12T17:03:54.652Z,11.20
2019-05-12T17:06:28.821Z,11.09
2019-05-12T17:08:57.755Z,11.05
2019-05-12T17:11:31.031Z,10.99
2019-05-12T17:14:04.947Z,10.98
2019-05-12T17:16:41.717Z,10.96
2019-05-12T17:19:10.464Z,10.90
2019-05-12T17:21:40.632Z,10.86
2019-05-12T17:24:14.696Z,10.81
2019-05-12T17:26:46.836Z,10.75
2019-05-12T17:29:19.534Z,10.72
2019-05-12T17:31:59.261Z,10.68
2019-05-12T17:34:35.278Z,10.62
2019-05-12T17:37:06.104Z,10.51
2019-05-12T17:39:39.152Z,10.48
2019-05-12T17:42:13.094Z,10.47
2019-05-12T17:44:43.454Z,10.40
2019-05-12T17:47:25.808Z,10.40
2019-05-12T17:49:55.082Z,10.38
2019-05-12T17:52:26.182Z,10.34
2019-05-12T17:55:04.660Z,10.30
2019-05-12T17:57:33.978Z,10.29
2019-05-12T18:00:16.168Z,10.23
2019-05-12T18:03:00.111Z,10.21
2019-05-12T18:05:28.991Z,10.18
2019-05-12T18:08:01.083Z,10.14
2019-05-12T18:10:37.869Z,10.11
2019-05-12T18:13:09.080Z,10.07
2019-05-12T18:15:55.050Z,10.03
2019-05-12T18:18:32.743Z,10.00
2019-05-12T18:21:13.124Z,9.95
2019-05-12T18:23:44.313Z,9.94
2019-05-12T18:26:18.323Z,9.91
2019-05-12T18:28:49.214Z,9.88
2019-05-12T18:31:25.186Z,9.84
2019-05-12T18:33:56.995Z,9.81
2019-05-12T18:36:34.023Z,9.78
2019-05-12T18:39:12.468Z,9.77
2019-05-12T18:41:53.984Z,9.73
2019-05-12T18:44:28.858Z,9.67
2019-05-12T18:46:55.095Z,9.64
2019-05-12T18:49:29.082Z,9.60
2019-05-12T18:52:04.866Z,9.57
2019-05-12T18:54:36.872Z,9.55
2019-05-12T18:57:24.771Z,9.50
2019-05-12T19:00:01.440Z,9.45
2019-05-12T19:02:29.229Z,9.43
2019-05-12T19:05:15.250Z,9.37
2019-05-12T19:07:44.107Z,9.31
2019-05-12T19:10:16.163Z,9.25
2019-05-12T19:12:46.626Z,9.20
2019-05-12T19:15:21.832Z,9.18
2019-05-12T19:17:54.040Z,9.16
2019-05-12T19:20:31.280Z,9.12
2019-05-12T19:23:03.603Z,9.09
2019-05-12T19:25:35.820Z,9.04
2019-05-12T19:28:10.511Z,9.04
2019-05-12T19:30:43.772Z,9.01
2019-05-12T19:33:20.900Z,9.02
2019-05-12T19:35:59.927Z,9.00
2019-05-12T19:38:24.319Z,8.98
2019-05-12T19:41:00.694Z,8.96
2019-05-12T19:43:34.163Z,8.93
2019-05-12T19:46:08.339Z,8.91
2019-05-12T19:48:48.170Z,8.89
2019-05-12T19:51:21.881Z,8.86
2019-05-12T19:53:49.205Z,8.85
2019-05-12T19:56:23.987Z,8.88
2019-05-12T19:58:55.128Z,8.86
2019-05-12T20:01:32.806Z,8.86
2019-05-12T20:04:03.887Z,8.82
2019-05-12T20:06:34.307Z,8.80
2019-05-12T20:09:10.790Z,8.75
2019-05-12T20:11:41.414Z,8.72
2019-05-12T20:14:19.020Z,8.71
2019-05-12T20:16:47.099Z,8.66
2019-05-12T20:19:25.512Z,8.62
2019-05-12T20:21:59.091Z,8.61
2019-05-12T20:24:34.279Z,8.59
2019-05-12T20:27:10.531Z,8.57
2019-05-12T20:29:45.792Z,8.51
2019-05-12T20:32:17.723Z,8.45
2019-05-12T20:34:51.975Z,8.41
2019-05-12T20:37:23.580Z,8.40
2019-05-12T20:40:04.924Z,8.38
2019-05-12T20:42:42.119Z,8.38
2019-05-12T20:45:07.534Z,8.38
2019-05-12T20:47:45.170Z,8.35
2019-05-12T20:50:14.883Z,8.32
2019-05-12T20:52:52.270Z,8.30
2019-05-12T20:55:19.331Z,8.31
2019-05-12T20:57:56.814Z,8.27
2019-05-12T21:00:26.821Z,8.22
2019-05-12T21:02:57.670Z,8.16
2019-05-12T21:05:28.508Z,8.14
2019-05-12T21:08:06.186Z,8.13
2019-05-12T21:10:34.290Z,8.12
2019-05-12T21:13:09.788Z,8.05
2019-05-12T21:15:42.759Z,8.03
2019-05-12T21:18:14.661Z,8.00
2019-05-12T21:20:46.348Z,7.96
2019-05-12T21:23:17.206Z,7.92
2019-05-12T21:25:58.135Z,7.91
2019-05-12T21:28:28.645Z,7.89
2019-05-12T21:30:59.183Z,7.83
2019-05-12T21:33:31.319Z,7.74
2019-05-12T21:36:04.842Z,7.70
2019-05-12T21:38:44.135Z,7.65
2019-05-12T21:41:15.653Z,7.58
2019-05-12T21:43:48.325Z,7.55
2019-05-12T21:46:21.263Z,7.49
2019-05-12T21:49:15.650Z,7.44
2019-05-12T21:51:59.127Z,7.43
2019-05-12T21:54:39.970Z,7.43
2019-05-12T21:57:10.600Z,7.39
2019-05-12T21:59:41.145Z,7.33
2019-05-12T22:02:11.571Z,7.28
2019-05-12T22:04:45.586Z,7.26
2019-05-12T22:07:15.655Z,7.17
2019-05-12T22:09:47.894Z,7.15
2019-05-12T22:12:23.275Z,7.12
2019-05-12T22:14:54.301Z,7.04
2019-05-12T22:17:26.101Z,7.05
2019-05-12T22:20:12.160Z,6.99
2019-05-12T22:22:36.614Z,6.94
2019-05-12T22:25:19.096Z,6.89
2019-05-12T22:27:53.729Z,6.79
2019-05-12T22:30:24.181Z,6.74
2019-05-12T22:33:08.289Z,6.67
2019-05-12T22:35:34.277Z,6.58
2019-05-12T22:38:16.576Z,6.50
2019-05-12T22:40:42.838Z,6.51
2019-05-12T22:43:14.208Z,6.48
2019-05-12T22:45:54.987Z,6.46
2019-05-12T22:48:29.683Z,6.45
2019-05-12T22:51:06.290Z,6.44
2019-05-12T22:53:39.883Z,6.39
2019-05-12T22:56:12.680Z,6.33
2019-05-12T22:58:45.052Z,6.32
2019-05-12T23:01:15.848Z,6.26
2019-05-12T23:03:51.573Z,6.29
2019-05-12T23:06:23.797Z,6.34
2019-05-12T23:08:50.963Z,6.29
2019-05-12T23:11:31.769Z,6.24
2019-05-12T23:13:57.269Z,6.15
2019-05-12T23:16:29.312Z,6.14
2019-05-12T23:19:01.462Z,6.09
2019-05-12T23:21:32.214Z,6.08
2019-05-12T23:24:03.769Z,6.10
2019-05-12T23:26:41.758Z,6.09
2019-05-12T23:29:06.559Z,6.07
2019-05-12T23:31:40.475Z,6.06
2019-05-12T23:34:12.226Z,6.02
2019-05-12T23:36:50.364Z,6.00
2019-05-12T23:39:18.103Z,6.02
2019-05-12T23:41:53.837Z,5.95
2019-05-12T23:44:25.669Z,5.93
2019-05-12T23:46:56.170Z,5.90
2019-05-12T23:49:33.887Z,5.86
2019-05-12T23:52:04.533Z,5.86
2019-05-12T23:54:34.964Z,5.86
2019-05-12T23:57:05.480Z,5.86
2019-05-12T23:59:35.906Z,5.88
